createdAt,value
2022-12-11T00:00:25.904Z,18.33
2022-12-11T00:01:29.219Z,18.13
2022-12-11T00:02:31.959Z,19.40
2022-12-11T00:03:33.771Z,18.23
2022-12-11T00:04:36.717Z,18.40
2022-12-11T00:05:40.870Z,16.27
2022-12-11T00:06:42.824Z,17.60
2022-12-11T00:07:45.600Z,17.90
2022-12-11T00:08:47.778Z,19.07
2022-12-11T00:09:50.727Z,17.67
2022-12-11T00:10:52.500Z,17.67
2022-12-11T00:11:55.496Z,15.00
2022-12-11T00:12:57.194Z,18.87
2022-12-11T00:13:59.895Z,20.13
2022-12-11T00:15:01.670Z,18.13
2022-12-11T00:16:04.465Z,18.20
2022-12-11T00:17:08.543Z,19.77
2022-12-11T00:18:13.466Z,14.63
2022-12-11T00:19:16.118Z,20.47
2022-12-11T00:20:18.070Z,18.37
2022-12-11T00:21:20.726Z,19.83
2022-12-11T00:22:22.426Z,16.77
2022-12-11T00:23:25.137Z,18.23
2022-12-11T00:24:27.830Z,18.77
2022-12-11T00:25:29.492Z,20.13
2022-12-11T00:26:32.227Z,17.50
2022-12-11T00:27:33.919Z,20.97
2022-12-11T00:28:37.135Z,23.57
2022-12-11T00:29:41.976Z,19.47
2022-12-11T00:30:45.034Z,26.60
2022-12-11T00:31:46.904Z,25.97
2022-12-11T00:32:52.537Z,18.23
2022-12-11T00:33:54.242Z,18.87
2022-12-11T00:34:56.958Z,21.37
2022-12-11T00:35:58.639Z,19.80
2022-12-11T00:37:01.344Z,19.10
2022-12-11T00:38:03.245Z,18.37
2022-12-11T00:39:06.381Z,21.73
2022-12-11T00:40:09.250Z,25.57
2022-12-11T00:41:12.056Z,20.03
2022-12-11T00:42:13.770Z,17.30
2022-12-11T00:43:17.063Z,22.33
2022-12-11T00:44:18.833Z,17.43
2022-12-11T00:45:21.520Z,15.57
2022-12-11T00:46:23.353Z,17.50
2022-12-11T00:47:26.066Z,19.87
2022-12-11T00:48:29.212Z,19.27
2022-12-11T00:49:31.908Z,20.30
2022-12-11T00:50:34.151Z,18.73
2022-12-11T00:51:36.807Z,19.23
2022-12-11T00:52:38.845Z,17.27
2022-12-11T00:53:41.630Z,17.07
2022-12-11T00:54:43.334Z,18.60
2022-12-11T00:55:45.968Z,21.47
2022-12-11T00:56:47.618Z,19.77
2022-12-11T00:57:52.742Z,19.47
2022-12-11T00:58:55.486Z,21.30
2022-12-11T00:59:57.223Z,22.77
2022-12-11T01:01:07.188Z,18.03
2022-12-11T01:02:08.968Z,22.90
2022-12-11T01:03:12.174Z,22.60
2022-12-11T01:04:15.294Z,19.27
2022-12-11T01:05:18.428Z,19.70
2022-12-11T01:06:24.254Z,18.97
2022-12-11T01:07:26.066Z,18.83
2022-12-11T01:08:31.681Z,19.30
2022-12-11T01:09:54.282Z,19.93
2022-12-11T01:11:02.459Z,21.77
2022-12-11T01:12:05.442Z,20.77
2022-12-11T01:13:07.220Z,19.90
2022-12-11T01:14:10.158Z,22.60
2022-12-11T01:15:12.430Z,20.10
2022-12-11T01:16:16.823Z,18.47
2022-12-11T01:17:18.572Z,23.03
2022-12-11T01:18:21.281Z,25.77
2022-12-11T01:19:24.332Z,20.67
2022-12-11T01:20:28.729Z,20.87
2022-12-11T01:21:30.711Z,21.93
2022-12-11T01:22:33.465Z,21.67
2022-12-11T01:23:35.270Z,18.83
2022-12-11T01:24:38.109Z,17.30
2022-12-11T01:25:40.736Z,22.83
2022-12-11T01:26:43.548Z,26.40
2022-12-11T01:27:47.402Z,22.23
2022-12-11T01:28:53.507Z,22.23
2022-12-11T01:29:55.273Z,23.37
2022-12-11T01:30:58.006Z,24.80
2022-12-11T01:31:59.746Z,24.23
2022-12-11T01:33:02.574Z,23.03
2022-12-11T01:34:04.287Z,22.27
2022-12-11T01:35:09.476Z,17.03
2022-12-11T01:36:13.949Z,21.83
2022-12-11T01:37:16.606Z,20.53
2022-12-11T01:38:18.256Z,25.73
2022-12-11T01:39:21.150Z,20.97
2022-12-11T01:40:23.055Z,21.90
2022-12-11T01:41:25.827Z,22.10
2022-12-11T01:42:29.427Z,22.00
2022-12-11T01:43:32.116Z,22.37
2022-12-11T01:45:27.071Z,20.83
2022-12-11T01:46:31.247Z,19.13
2022-12-11T01:47:33.096Z,20.43
2022-12-11T01:48:40.710Z,22.30
2022-12-11T01:49:44.008Z,19.60
2022-12-11T01:50:51.620Z,19.33
2022-12-11T01:51:55.511Z,25.20
2022-12-11T01:52:58.440Z,21.77
2022-12-11T01:54:03.662Z,20.63
2022-12-11T01:55:07.441Z,23.90
2022-12-11T01:56:10.213Z,24.07
2022-12-11T01:57:14.421Z,22.67
2022-12-11T01:58:17.730Z,24.20
2022-12-11T01:59:22.196Z,22.00
2022-12-11T02:00:25.010Z,22.83
2022-12-11T02:01:32.482Z,23.63
2022-12-11T02:02:35.228Z,22.03
2022-12-11T02:03:36.985Z,21.07
2022-12-11T02:04:40.475Z,20.97
2022-12-11T02:05:42.232Z,20.97
2022-12-11T02:06:48.097Z,23.60
2022-12-11T02:07:52.120Z,23.53
2022-12-11T02:08:54.832Z,24.07
2022-12-11T02:09:56.547Z,21.73
2022-12-11T02:11:07.208Z,19.97
2022-12-11T02:12:15.955Z,21.43
2022-12-11T02:13:22.258Z,20.37
2022-12-11T02:14:30.019Z,20.20
2022-12-11T02:15:34.411Z,22.13
2022-12-11T02:16:41.133Z,23.47
2022-12-11T02:17:46.667Z,21.40
2022-12-11T02:18:54.352Z,21.53
2022-12-11T02:20:02.065Z,23.63
2022-12-11T02:21:09.054Z,23.33
2022-12-11T02:22:17.087Z,20.13
2022-12-11T02:23:34.934Z,19.80
2022-12-11T02:24:49.943Z,20.57
2022-12-11T02:25:57.239Z,20.83
2022-12-11T02:27:30.157Z,23.83
2022-12-11T02:28:36.695Z,22.77
2022-12-11T02:29:40.660Z,19.10
2022-12-11T02:30:43.175Z,22.20
2022-12-11T02:31:48.110Z,21.97
2022-12-11T02:32:54.058Z,22.03
2022-12-11T02:34:02.653Z,20.13
2022-12-11T02:35:09.896Z,20.50
2022-12-11T02:36:13.476Z,23.83
2022-12-11T02:37:20.519Z,17.50
2022-12-11T02:38:28.211Z,18.10
2022-12-11T02:39:31.387Z,16.90
2022-12-11T02:40:36.442Z,21.73
2022-12-11T02:41:39.026Z,17.40
2022-12-11T02:42:43.857Z,18.13
2022-12-11T02:43:48.406Z,20.40
2022-12-11T02:44:52.243Z,20.63
2022-12-11T02:45:54.466Z,22.97
2022-12-11T02:46:57.458Z,17.50
2022-12-11T02:48:02.667Z,17.20
2022-12-11T02:49:06.665Z,27.40
2022-12-11T02:50:13.574Z,20.73
2022-12-11T02:51:16.288Z,23.77
2022-12-11T02:52:22.300Z,20.10
2022-12-11T02:53:27.069Z,20.07
2022-12-11T02:54:33.404Z,24.63
2022-12-11T02:55:36.683Z,23.37
2022-12-11T02:56:43.286Z,20.27
2022-12-11T02:57:48.736Z,21.63
2022-12-11T02:58:58.678Z,19.97
2022-12-11T03:00:00.702Z,25.17
2022-12-11T03:01:03.540Z,23.57
2022-12-11T03:02:06.312Z,21.33
2022-12-11T03:03:09.337Z,21.70
2022-12-11T03:04:11.038Z,19.80
2022-12-11T03:05:15.389Z,22.60
2022-12-11T03:06:20.540Z,21.00
2022-12-11T03:07:26.238Z,21.97
2022-12-11T03:08:28.032Z,23.30
2022-12-11T03:09:30.860Z,22.63
2022-12-11T03:10:32.532Z,21.83
2022-12-11T03:11:35.233Z,25.03
2022-12-11T03:12:39.198Z,21.50
2022-12-11T03:13:42.613Z,21.07
2022-12-11T03:14:45.799Z,21.40
2022-12-11T03:15:58.214Z,23.63
2022-12-11T03:17:05.663Z,22.70
2022-12-11T03:18:13.465Z,19.27
2022-12-11T03:19:22.537Z,20.33
2022-12-11T03:20:32.192Z,21.13
2022-12-11T03:21:38.482Z,20.00
2022-12-11T03:22:44.903Z,22.93
2022-12-11T03:23:51.241Z,22.93
2022-12-11T03:24:58.416Z,22.53
2022-12-11T03:26:03.668Z,28.23
2022-12-11T03:27:11.350Z,23.27
2022-12-11T03:28:16.766Z,26.17
2022-12-11T03:29:22.301Z,21.43
2022-12-11T03:30:26.463Z,21.37
2022-12-11T03:31:32.611Z,20.07
2022-12-11T03:32:37.731Z,24.53
2022-12-11T03:33:42.164Z,23.23
2022-12-11T03:34:45.945Z,20.33
2022-12-11T03:35:52.283Z,24.77
2022-12-11T03:36:56.280Z,21.80
2022-12-11T03:38:02.904Z,25.57
2022-12-11T03:39:08.097Z,22.33
2022-12-11T03:40:15.941Z,24.07
2022-12-11T03:41:19.430Z,22.90
2022-12-11T03:42:23.126Z,21.43
2022-12-11T03:43:26.469Z,21.90
2022-12-11T03:44:30.098Z,21.00
2022-12-11T03:45:33.817Z,21.73
2022-12-11T03:46:39.619Z,22.30
2022-12-11T03:47:41.636Z,21.60
2022-12-11T03:48:45.955Z,19.60
2022-12-11T03:49:48.328Z,25.57
2022-12-11T03:50:51.710Z,20.10
2022-12-11T03:51:55.392Z,24.13
2022-12-11T03:52:58.986Z,26.70
2022-12-11T03:54:00.875Z,22.93
2022-12-11T03:55:05.915Z,21.87
2022-12-11T03:56:09.168Z,21.47
2022-12-11T03:57:14.371Z,20.50
2022-12-11T03:58:16.061Z,24.27
2022-12-11T03:59:18.997Z,26.50
2022-12-11T04:00:21.410Z,26.77
2022-12-11T04:01:25.527Z,24.73
2022-12-11T04:02:27.384Z,19.73
2022-12-11T04:03:30.038Z,21.40
2022-12-11T04:04:31.804Z,22.30
2022-12-11T04:05:34.502Z,23.63
2022-12-11T04:06:36.155Z,24.17
2022-12-11T04:07:38.901Z,19.93
2022-12-11T04:08:40.728Z,24.73
2022-12-11T04:09:43.364Z,22.23
2022-12-11T04:10:45.035Z,20.30
2022-12-11T04:11:47.728Z,21.47
2022-12-11T04:12:49.408Z,20.63
2022-12-11T04:14:12.495Z,20.90
2022-12-11T04:15:14.312Z,19.60
2022-12-11T04:16:15.991Z,23.23
2022-12-11T04:17:33.903Z,22.93
2022-12-11T04:18:54.074Z,21.27
2022-12-11T04:20:19.644Z,22.47
2022-12-11T04:21:40.083Z,26.43
2022-12-11T04:23:00.233Z,24.13
2022-12-11T04:24:18.313Z,21.03
2022-12-11T04:25:19.984Z,25.97
2022-12-11T04:26:22.772Z,18.50
2022-12-11T04:27:43.259Z,22.87
2022-12-11T04:28:47.751Z,24.47
2022-12-11T04:29:49.551Z,23.90
2022-12-11T04:30:52.344Z,23.83
2022-12-11T04:31:54.222Z,21.37
2022-12-11T04:32:58.247Z,23.63
2022-12-11T04:34:00.039Z,22.80
2022-12-11T04:35:02.897Z,18.83
2022-12-11T04:36:05.320Z,21.53
2022-12-11T04:37:07.971Z,22.40
2022-12-11T04:38:09.605Z,24.40
2022-12-11T04:39:12.383Z,26.07
2022-12-11T04:40:17.066Z,26.13
2022-12-11T04:41:19.771Z,22.93
2022-12-11T04:42:21.434Z,24.07
2022-12-11T04:43:24.199Z,24.90
2022-12-11T04:44:25.952Z,20.67
2022-12-11T04:45:28.626Z,24.97
2022-12-11T04:46:31.400Z,24.50
2022-12-11T04:47:33.262Z,20.80
2022-12-11T04:48:37.872Z,23.23
2022-12-11T04:49:39.519Z,21.47
2022-12-11T04:50:42.191Z,23.40
2022-12-11T04:51:44.060Z,22.00
2022-12-11T04:52:46.735Z,23.10
2022-12-11T04:53:48.457Z,26.13
2022-12-11T04:54:51.471Z,22.57
2022-12-11T04:55:54.379Z,25.13
2022-12-11T04:56:56.071Z,24.13
2022-12-11T04:57:58.779Z,21.27
2022-12-11T04:59:01.120Z,23.23
2022-12-11T05:00:04.712Z,24.13
2022-12-11T05:01:08.578Z,24.27
2022-12-11T05:02:11.286Z,22.17
2022-12-11T05:03:13.003Z,21.63
2022-12-11T05:04:17.116Z,19.13
2022-12-11T05:05:18.902Z,26.03
2022-12-11T05:06:21.642Z,27.07
2022-12-11T05:07:23.284Z,24.73
2022-12-11T05:08:25.963Z,20.53
2022-12-11T05:09:28.559Z,22.87
2022-12-11T05:10:31.208Z,20.80
2022-12-11T05:11:33.508Z,20.87
2022-12-11T05:12:36.226Z,23.17
2022-12-11T05:13:38.010Z,19.17
2022-12-11T05:14:40.669Z,23.23
2022-12-11T05:15:42.367Z,21.73
2022-12-11T05:16:45.407Z,24.03
2022-12-11T05:17:47.099Z,24.77
2022-12-11T05:18:49.789Z,20.53
2022-12-11T05:19:52.913Z,24.20
2022-12-11T05:20:59.579Z,25.17
2022-12-11T05:22:01.538Z,22.97
2022-12-11T05:23:04.404Z,21.30
2022-12-11T05:24:06.708Z,23.50
2022-12-11T05:25:11.082Z,20.83
2022-12-11T05:26:16.084Z,22.67
2022-12-11T05:27:18.771Z,24.30
2022-12-11T05:28:21.241Z,23.80
2022-12-11T05:29:23.982Z,22.40
2022-12-11T05:30:25.670Z,23.57
2022-12-11T05:31:29.151Z,18.53
2022-12-11T05:32:30.949Z,23.17
2022-12-11T05:33:34.290Z,24.50
2022-12-11T05:34:36.014Z,21.27
2022-12-11T05:35:40.258Z,23.83
2022-12-11T05:36:41.960Z,25.70
2022-12-11T05:37:44.675Z,22.33
2022-12-11T05:38:46.452Z,25.70
2022-12-11T05:39:49.161Z,27.40
2022-12-11T05:40:56.186Z,21.27
2022-12-11T05:41:59.062Z,19.70
2022-12-11T05:43:00.708Z,22.60
2022-12-11T05:44:03.386Z,18.97
2022-12-11T05:45:06.054Z,18.57
2022-12-11T05:46:10.413Z,22.97
2022-12-11T05:47:12.114Z,16.80
2022-12-11T05:48:14.762Z,19.90
2022-12-11T05:49:19.896Z,17.47
2022-12-11T05:50:22.914Z,21.07
2022-12-11T05:51:26.402Z,24.13
2022-12-11T05:52:29.090Z,24.53
2022-12-11T05:53:31.282Z,20.13
2022-12-11T05:54:33.967Z,21.17
2022-12-11T05:55:36.136Z,21.33
2022-12-11T05:56:39.162Z,22.77
2022-12-11T05:57:40.803Z,23.23
2022-12-11T05:58:44.481Z,20.13
2022-12-11T05:59:46.214Z,20.20
2022-12-11T06:00:49.323Z,23.03
2022-12-11T06:01:52.226Z,20.37
2022-12-11T06:02:54.144Z,20.23
2022-12-11T06:03:58.262Z,21.10
2022-12-11T06:05:00.035Z,20.13
2022-12-11T06:06:02.995Z,23.47
2022-12-11T06:07:07.090Z,21.97
2022-12-11T06:08:08.962Z,22.20
2022-12-11T06:09:14.628Z,19.00
2022-12-11T06:10:16.546Z,23.80
2022-12-11T06:11:23.726Z,21.83
2022-12-11T06:12:28.325Z,25.23
2022-12-11T06:13:30.166Z,22.80
2022-12-11T06:14:32.891Z,20.43
2022-12-11T06:15:34.582Z,22.20
2022-12-11T06:16:37.457Z,20.33
2022-12-11T06:17:39.158Z,22.53
2022-12-11T06:18:43.195Z,20.03
2022-12-11T06:19:44.906Z,25.53
2022-12-11T06:20:47.546Z,21.27
2022-12-11T06:21:50.284Z,23.77
2022-12-11T06:22:53.323Z,23.03
2022-12-11T06:23:57.314Z,23.23
2022-12-11T06:24:59.034Z,24.07
2022-12-11T06:26:01.684Z,23.93
2022-12-11T06:27:03.363Z,21.07
2022-12-11T06:28:06.197Z,28.03
2022-12-11T06:29:12.550Z,23.53
2022-12-11T06:30:16.519Z,23.50
2022-12-11T06:31:18.591Z,25.37
2022-12-11T06:32:22.771Z,23.93
2022-12-11T06:33:24.460Z,25.30
2022-12-11T06:34:27.396Z,17.93
2022-12-11T06:35:29.155Z,24.50
2022-12-11T06:36:31.813Z,22.93
2022-12-11T06:37:34.964Z,22.57
2022-12-11T06:38:39.167Z,28.00
2022-12-11T06:39:40.900Z,22.33
2022-12-11T06:40:43.567Z,20.13
2022-12-11T06:41:45.350Z,21.53
2022-12-11T06:42:48.136Z,26.03
2022-12-11T06:43:50.699Z,21.20
2022-12-11T06:44:53.331Z,19.03
2022-12-11T06:45:57.973Z,21.30
2022-12-11T06:47:05.471Z,21.67
2022-12-11T06:48:07.208Z,22.27
2022-12-11T06:49:09.898Z,21.27
2022-12-11T06:50:11.598Z,18.67
2022-12-11T06:51:16.046Z,21.63
2022-12-11T06:52:18.669Z,22.50
2022-12-11T06:53:21.477Z,24.27
2022-12-11T06:54:27.122Z,19.90
2022-12-11T06:55:29.819Z,21.87
2022-12-11T06:56:31.521Z,22.10
2022-12-11T06:57:34.887Z,22.93
2022-12-11T06:58:37.833Z,22.00
2022-12-11T06:59:40.643Z,18.47
2022-12-11T07:00:42.538Z,22.57
2022-12-11T07:01:45.269Z,21.97
2022-12-11T07:02:46.946Z,23.87
2022-12-11T07:03:49.848Z,18.03
2022-12-11T07:04:55.081Z,22.67
2022-12-11T07:06:01.625Z,19.83
2022-12-11T07:07:03.348Z,21.70
2022-12-11T07:08:07.471Z,18.93
2022-12-11T07:09:10.167Z,19.90
2022-12-11T07:10:14.233Z,17.57
2022-12-11T07:11:17.823Z,16.53
2022-12-11T07:12:19.584Z,19.53
2022-12-11T07:13:22.218Z,16.80
2022-12-11T07:14:24.006Z,19.97
2022-12-11T07:15:26.670Z,15.57
2022-12-11T07:16:28.582Z,25.80
2022-12-11T07:17:31.955Z,22.30
2022-12-11T07:18:33.640Z,18.47
2022-12-11T07:19:36.378Z,19.40
2022-12-11T07:20:38.082Z,20.50
2022-12-11T07:21:40.924Z,18.67
2022-12-11T07:22:46.402Z,23.83
2022-12-11T07:23:50.343Z,27.57
2022-12-11T07:24:52.092Z,19.07
2022-12-11T07:25:56.832Z,21.63
2022-12-11T07:26:58.668Z,22.77
2022-12-11T07:28:01.533Z,20.07
2022-12-11T07:29:04.290Z,23.57
2022-12-11T07:30:07.198Z,21.10
2022-12-11T07:31:12.054Z,18.07
2022-12-11T07:32:14.465Z,20.47
2022-12-11T07:33:17.355Z,22.80
2022-12-11T07:34:19.152Z,20.07
2022-12-11T07:35:21.831Z,21.97
2022-12-11T07:36:23.912Z,22.60
2022-12-11T07:37:26.764Z,18.10
2022-12-11T07:38:28.519Z,18.80
2022-12-11T07:39:31.188Z,20.63
2022-12-11T07:40:34.526Z,22.13
2022-12-11T07:41:38.867Z,20.87
2022-12-11T07:42:45.976Z,22.17
2022-12-11T07:43:49.169Z,17.10
2022-12-11T07:44:50.818Z,19.67
2022-12-11T07:45:53.511Z,20.57
2022-12-11T07:46:55.233Z,21.93
2022-12-11T07:47:57.915Z,21.20
2022-12-11T07:49:00.887Z,20.73
2022-12-11T07:50:03.584Z,21.90
2022-12-11T07:51:09.641Z,25.37
2022-12-11T07:52:12.469Z,25.77
2022-12-11T07:53:14.405Z,25.03
2022-12-11T07:54:17.408Z,20.87
2022-12-11T07:55:19.117Z,19.90
2022-12-11T07:56:22.097Z,23.13
2022-12-11T07:57:26.188Z,24.87
2022-12-11T07:58:28.205Z,23.80
2022-12-11T07:59:31.035Z,24.13
2022-12-11T08:00:32.879Z,25.60
2022-12-11T08:01:36.863Z,26.33
2022-12-11T08:02:39.665Z,26.33
2022-12-11T08:03:42.147Z,27.07
2022-12-11T08:04:44.872Z,24.83
2022-12-11T08:05:48.351Z,23.93
2022-12-11T08:06:51.000Z,24.13
2022-12-11T08:07:53.736Z,26.53
2022-12-11T08:08:55.529Z,24.57
2022-12-11T08:09:58.283Z,27.80
2022-12-11T08:11:00.947Z,22.87
2022-12-11T08:12:03.680Z,24.17
2022-12-11T08:13:06.722Z,25.77
2022-12-11T08:14:09.626Z,22.77
2022-12-11T08:15:11.800Z,26.27
2022-12-11T08:16:15.993Z,25.03
2022-12-11T08:17:17.725Z,23.40
2022-12-11T08:18:20.445Z,24.30
2022-12-11T08:19:22.126Z,25.13
2022-12-11T08:20:24.928Z,25.20
2022-12-11T08:21:27.791Z,22.60
2022-12-11T08:22:30.421Z,24.73
2022-12-11T08:23:32.150Z,28.33
2022-12-11T08:24:35.014Z,27.57
2022-12-11T08:25:36.681Z,26.33
2022-12-11T08:26:39.373Z,24.27
2022-12-11T08:27:41.078Z,24.23
2022-12-11T08:28:45.170Z,23.47
2022-12-11T08:29:47.894Z,26.80
2022-12-11T08:30:49.657Z,21.70
2022-12-11T08:31:52.363Z,22.70
2022-12-11T08:32:54.098Z,23.20
2022-12-11T08:33:57.541Z,25.67
2022-12-11T08:35:00.262Z,25.90
2022-12-11T08:36:02.732Z,26.07
2022-12-11T08:37:05.453Z,28.87
2022-12-11T08:38:07.152Z,22.90
2022-12-11T08:39:09.845Z,27.77
2022-12-11T08:40:12.388Z,25.93
2022-12-11T08:41:17.278Z,22.93
2022-12-11T08:42:19.967Z,29.17
2022-12-11T08:43:21.665Z,26.10
2022-12-11T08:44:27.129Z,19.63
2022-12-11T08:45:28.939Z,24.50
2022-12-11T08:46:33.606Z,25.97
2022-12-11T08:47:35.335Z,23.90
2022-12-11T08:48:42.101Z,21.63
2022-12-11T08:49:44.859Z,28.00
2022-12-11T08:50:46.540Z,26.07
2022-12-11T08:51:49.237Z,22.37
2022-12-11T08:52:51.027Z,25.30
2022-12-11T08:53:56.142Z,24.43
2022-12-11T08:54:58.237Z,27.40
2022-12-11T08:56:04.970Z,24.67
2022-12-11T08:57:06.659Z,28.10
2022-12-11T08:58:09.396Z,27.07
2022-12-11T08:59:11.123Z,23.63
2022-12-11T09:00:16.409Z,24.87
2022-12-11T09:01:21.551Z,21.33
2022-12-11T09:02:24.397Z,22.47
2022-12-11T09:03:26.108Z,23.77
2022-12-11T09:04:29.134Z,22.13
2022-12-11T09:05:31.131Z,26.40
2022-12-11T09:06:34.277Z,24.57
2022-12-11T09:07:37.034Z,28.80
2022-12-11T09:08:40.141Z,30.27
2022-12-11T09:09:42.798Z,27.87
2022-12-11T09:10:44.528Z,29.47
2022-12-11T09:11:47.274Z,26.50
2022-12-11T09:12:48.930Z,27.90
2022-12-11T09:13:51.675Z,25.27
2022-12-11T09:14:53.434Z,26.43
2022-12-11T09:15:57.588Z,26.93
2022-12-11T09:17:00.280Z,26.67
2022-12-11T09:18:02.005Z,26.43
2022-12-11T09:19:04.847Z,25.73
2022-12-11T09:20:08.727Z,24.50
2022-12-11T09:21:13.444Z,26.70
2022-12-11T09:22:16.175Z,26.83
2022-12-11T09:23:17.868Z,27.40
2022-12-11T09:24:20.619Z,27.60
2022-12-11T09:25:23.284Z,26.63
2022-12-11T09:26:26.412Z,28.43
2022-12-11T09:27:29.233Z,30.17
2022-12-11T09:28:32.489Z,27.83
2022-12-11T09:29:36.210Z,32.53
2022-12-11T09:30:37.926Z,27.00
2022-12-11T09:31:42.108Z,29.73
2022-12-11T09:32:43.850Z,27.77
2022-12-11T09:33:47.054Z,31.57
2022-12-11T09:34:51.594Z,31.13
2022-12-11T09:35:59.316Z,28.63
2022-12-11T09:37:01.961Z,26.30
2022-12-11T09:38:03.987Z,26.33
2022-12-11T09:39:08.697Z,25.73
2022-12-11T09:40:12.504Z,26.00
2022-12-11T09:41:30.955Z,30.50
2022-12-11T09:42:50.825Z,28.43
2022-12-11T09:44:00.531Z,33.17
2022-12-11T09:45:05.023Z,28.70
2022-12-11T09:46:11.612Z,27.50
2022-12-11T09:47:27.712Z,26.80
2022-12-11T09:48:30.772Z,30.67
2022-12-11T09:49:40.368Z,27.90
2022-12-11T09:50:42.441Z,29.97
2022-12-11T09:51:48.759Z,28.70
2022-12-11T09:53:01.239Z,31.37
2022-12-11T09:54:04.081Z,31.67
2022-12-11T09:55:14.458Z,27.87
2022-12-11T09:56:18.445Z,31.97
2022-12-11T09:57:35.679Z,33.57
2022-12-11T09:58:40.884Z,31.73
2022-12-11T09:59:53.307Z,31.73
2022-12-11T10:00:59.083Z,24.80
2022-12-11T10:02:05.327Z,30.83
2022-12-11T10:03:22.989Z,31.73
2022-12-11T10:04:38.576Z,31.60
2022-12-11T10:05:47.566Z,31.70
2022-12-11T10:06:59.144Z,27.87
2022-12-11T10:08:05.929Z,28.07
2022-12-11T10:09:15.538Z,32.17
2022-12-11T10:10:24.673Z,27.17
2022-12-11T10:11:43.948Z,29.03
2022-12-11T10:12:50.815Z,24.87
2022-12-11T10:13:59.037Z,35.63
2022-12-11T10:15:16.061Z,29.43
2022-12-11T10:16:28.390Z,29.60
2022-12-11T10:17:33.125Z,28.07
2022-12-11T10:18:37.588Z,31.53
2022-12-11T10:19:42.226Z,31.90
2022-12-11T10:20:45.298Z,32.40
2022-12-11T10:21:48.260Z,30.77
2022-12-11T10:22:52.030Z,26.53
2022-12-11T10:23:58.203Z,33.70
2022-12-11T10:25:11.615Z,28.57
2022-12-11T10:26:26.143Z,28.70
2022-12-11T10:27:32.155Z,26.70
2022-12-11T10:28:35.535Z,26.40
2022-12-11T10:29:37.229Z,29.93
2022-12-11T10:30:42.995Z,30.07
2022-12-11T10:31:51.946Z,31.13
2022-12-11T10:32:57.882Z,32.63
2022-12-11T10:34:03.144Z,27.27
2022-12-11T10:35:06.337Z,28.30
2022-12-11T10:36:09.712Z,28.60
2022-12-11T10:37:11.425Z,28.93
2022-12-11T10:38:16.627Z,31.50
2022-12-11T10:39:21.607Z,31.73
2022-12-11T10:40:25.725Z,28.40
2022-12-11T10:41:36.444Z,30.77
2022-12-11T10:42:44.071Z,32.40
2022-12-11T10:43:49.662Z,31.00
2022-12-11T10:44:59.261Z,31.70
2022-12-11T10:46:02.214Z,31.10
2022-12-11T10:47:07.498Z,29.50
2022-12-11T10:48:12.522Z,26.27
2022-12-11T10:49:26.675Z,30.97
2022-12-11T10:50:29.343Z,27.17
2022-12-11T10:51:37.449Z,29.37
2022-12-11T10:52:45.450Z,26.67
2022-12-11T10:53:51.728Z,27.57
2022-12-11T10:54:57.369Z,31.07
2022-12-11T10:56:00.957Z,29.63
2022-12-11T10:57:04.997Z,32.43
2022-12-11T10:58:07.056Z,25.70
2022-12-11T10:59:19.836Z,28.47
2022-12-11T11:00:37.008Z,26.47
2022-12-11T11:01:39.843Z,26.67
2022-12-11T11:02:42.749Z,26.97
2022-12-11T11:03:58.845Z,32.53
2022-12-11T11:05:14.300Z,29.23
2022-12-11T11:06:18.855Z,36.30
2022-12-11T11:07:24.528Z,28.90
2022-12-11T11:08:27.796Z,26.43
2022-12-11T11:09:32.390Z,35.13
2022-12-11T11:10:34.345Z,31.47
2022-12-11T11:11:38.463Z,26.20
2022-12-11T11:12:43.428Z,26.90
2022-12-11T11:13:45.352Z,29.57
2022-12-11T11:14:48.149Z,30.80
2022-12-11T11:15:50.313Z,32.80
2022-12-11T11:16:55.836Z,28.30
2022-12-11T11:18:02.311Z,30.47
2022-12-11T11:19:05.324Z,27.20
2022-12-11T11:20:14.808Z,29.70
2022-12-11T11:21:18.171Z,33.00
2022-12-11T11:22:21.114Z,31.33
2022-12-11T11:23:25.086Z,31.20
2022-12-11T11:24:35.053Z,31.93
2022-12-11T11:25:37.771Z,25.77
2022-12-11T11:27:11.691Z,27.73
2022-12-11T11:28:03.890Z,30.23
2022-12-11T11:29:06.932Z,30.93
2022-12-11T11:30:19.371Z,25.87
2022-12-11T11:31:24.155Z,28.10
2022-12-11T11:32:29.948Z,26.80
2022-12-11T11:33:34.666Z,35.33
2022-12-11T11:34:37.362Z,28.30
2022-12-11T11:35:52.125Z,25.20
2022-12-11T11:37:01.004Z,29.13
2022-12-11T11:38:06.480Z,26.30
2022-12-11T11:39:19.114Z,28.17
2022-12-11T11:40:25.708Z,29.23
2022-12-11T11:41:30.783Z,28.83
2022-12-11T11:42:41.660Z,28.37
2022-12-11T11:43:46.456Z,29.30
2022-12-11T11:44:58.052Z,30.43
2022-12-11T11:46:03.700Z,27.13
2022-12-11T11:47:12.069Z,24.67
2022-12-11T11:48:25.986Z,34.87
2022-12-11T11:49:37.175Z,25.23
2022-12-11T11:50:45.827Z,26.73
2022-12-11T11:51:51.294Z,26.47
2022-12-11T11:52:57.375Z,26.93
2022-12-11T11:54:02.997Z,31.67
2022-12-11T11:55:10.327Z,28.77
2022-12-11T11:56:20.062Z,31.63
2022-12-11T11:57:29.232Z,33.80
2022-12-11T11:58:38.528Z,28.37
2022-12-11T11:59:44.121Z,32.97
2022-12-11T12:00:45.782Z,26.83
2022-12-11T12:01:48.976Z,27.63
2022-12-11T12:02:54.987Z,28.20
2022-12-11T12:03:58.135Z,27.17
2022-12-11T12:04:59.946Z,28.47
2022-12-11T12:06:14.722Z,24.63
2022-12-11T12:07:28.771Z,28.73
2022-12-11T12:08:43.035Z,32.83
2022-12-11T12:09:51.907Z,28.83
2022-12-11T12:11:02.585Z,30.53
2022-12-11T12:12:13.598Z,29.43
2022-12-11T12:13:48.561Z,33.60
2022-12-11T12:15:03.629Z,30.70
2022-12-11T12:16:29.480Z,24.47
2022-12-11T12:17:44.064Z,27.13
2022-12-11T12:18:51.058Z,26.03
2022-12-11T12:20:03.394Z,29.93
2022-12-11T12:21:25.473Z,32.37
2022-12-11T12:22:37.110Z,30.57
2022-12-11T12:23:49.557Z,29.23
2022-12-11T12:25:00.386Z,26.27
2022-12-11T12:26:08.507Z,32.57
2022-12-11T12:27:50.001Z,29.13
2022-12-11T12:28:45.590Z,29.90
2022-12-11T12:29:54.117Z,32.07
2022-12-11T12:31:08.487Z,30.30
2022-12-11T12:32:19.173Z,32.70
2022-12-11T12:33:28.016Z,26.70
2022-12-11T12:34:43.564Z,30.83
2022-12-11T12:35:52.750Z,30.97
2022-12-11T12:37:01.511Z,34.23
2022-12-11T12:38:11.499Z,32.90
2022-12-11T12:39:21.234Z,28.73
2022-12-11T12:40:30.311Z,35.00
2022-12-11T12:41:40.427Z,27.77
2022-12-11T12:42:49.140Z,27.73
2022-12-11T12:44:07.578Z,28.37
2022-12-11T12:45:27.663Z,33.07
2022-12-11T12:46:41.122Z,27.27
2022-12-11T12:47:48.874Z,33.40
2022-12-11T12:48:55.885Z,28.67
2022-12-11T12:49:59.975Z,29.80
2022-12-11T12:51:03.086Z,31.63
2022-12-11T12:52:08.432Z,24.60
2022-12-11T12:53:14.501Z,30.13
2022-12-11T12:54:18.622Z,29.93
2022-12-11T12:55:23.115Z,27.33
2022-12-11T12:56:26.227Z,28.83
2022-12-11T12:57:28.004Z,30.43
2022-12-11T12:58:42.361Z,32.80
2022-12-11T12:59:53.983Z,26.63
2022-12-11T13:01:08.172Z,32.33
2022-12-11T13:02:15.153Z,28.07
2022-12-11T13:03:20.227Z,27.80
2022-12-11T13:04:54.989Z,27.93
2022-12-11T13:05:59.854Z,31.00
2022-12-11T13:07:14.128Z,32.40
2022-12-11T13:08:25.827Z,31.00
2022-12-11T13:09:28.483Z,29.17
2022-12-11T13:10:33.151Z,35.03
2022-12-11T13:11:36.319Z,33.83
2022-12-11T13:12:44.536Z,32.43
2022-12-11T13:13:54.962Z,34.03
2022-12-11T13:14:58.268Z,32.23
2022-12-11T13:16:23.423Z,35.17
2022-12-11T13:17:28.393Z,32.20
2022-12-11T13:18:34.021Z,29.23
2022-12-11T13:19:42.400Z,32.63
2022-12-11T13:20:51.165Z,32.17
2022-12-11T13:21:59.824Z,38.93
2022-12-11T13:23:20.353Z,29.13
2022-12-11T13:24:27.122Z,31.20
2022-12-11T13:25:35.224Z,31.20
2022-12-11T13:26:42.030Z,30.43
2022-12-11T13:27:44.061Z,29.97
2022-12-11T13:28:51.766Z,30.33
2022-12-11T13:30:07.181Z,35.13
2022-12-11T13:31:29.897Z,35.30
2022-12-11T13:32:31.910Z,31.03
2022-12-11T13:33:40.474Z,35.17
2022-12-11T13:34:45.388Z,34.70
2022-12-11T13:35:48.273Z,30.13
2022-12-11T13:36:51.030Z,34.63
2022-12-11T13:37:55.309Z,26.93
2022-12-11T13:39:02.213Z,34.37
2022-12-11T13:40:08.326Z,35.93
2022-12-11T13:41:11.511Z,28.17
2022-12-11T13:42:23.643Z,32.07
2022-12-11T13:43:28.652Z,30.50
2022-12-11T13:44:34.156Z,33.50
2022-12-11T13:45:40.032Z,28.43
2022-12-11T13:46:43.504Z,33.27
2022-12-11T13:47:47.635Z,32.53
2022-12-11T13:48:54.342Z,28.70
2022-12-11T13:50:16.234Z,31.67
2022-12-11T13:51:20.823Z,36.30
2022-12-11T13:52:25.810Z,34.43
2022-12-11T13:53:27.619Z,34.20
2022-12-11T13:54:34.021Z,29.53
2022-12-11T13:55:35.931Z,35.50
2022-12-11T13:56:38.724Z,37.73
2022-12-11T13:57:46.585Z,33.67
2022-12-11T13:58:49.683Z,32.70